createdAt,value
2017-12-29T00:00:14.797Z,5.60
2017-12-29T00:01:12.376Z,5.80
2017-12-29T00:02:12.446Z,5.80
2017-12-29T00:03:13.520Z,4.90
2017-12-29T00:04:13.741Z,5.10
2017-12-29T00:05:39.901Z,5.60
2017-12-29T00:06:46.163Z,6.20
2017-12-29T00:07:43.074Z,5.40
2017-12-29T00:08:41.209Z,5.90
2017-12-29T00:09:40.967Z,5.90
2017-12-29T00:10:42.072Z,5.80
2017-12-29T00:11:44.833Z,5.20
2017-12-29T00:12:38.323Z,5.70
2017-12-29T00:13:36.243Z,5.80
2017-12-29T00:14:36.494Z,5.50
2017-12-29T00:15:36.539Z,5.40
2017-12-29T00:16:36.511Z,4.90
2017-12-29T00:17:58.537Z,5.40
2017-12-29T00:18:59.988Z,5.50
2017-12-29T00:19:59.969Z,5.70
2017-12-29T00:20:59.301Z,5.30
2017-12-29T00:21:58.756Z,4.90
2017-12-29T00:22:59.194Z,5.80
2017-12-29T00:24:20.609Z,4.30
2017-12-29T00:25:20.472Z,5.70
2017-12-29T00:26:21.008Z,5.60
2017-12-29T00:27:21.142Z,5.30
2017-12-29T00:28:20.900Z,5.80
2017-12-29T00:29:20.898Z,5.60
2017-12-29T00:30:21.327Z,5.30
2017-12-29T00:31:21.092Z,5.50
2017-12-29T00:32:21.460Z,5.20
2017-12-29T00:33:20.897Z,5.50
2017-12-29T00:34:21.429Z,5.60
2017-12-29T00:35:21.217Z,5.60
2017-12-29T00:36:21.527Z,5.20
2017-12-29T00:37:22.049Z,5.30
2017-12-29T00:38:21.132Z,5.10
2017-12-29T00:39:21.235Z,5.60
2017-12-29T00:40:21.235Z,5.60
2017-12-29T00:41:21.831Z,5.10
2017-12-29T00:42:21.436Z,5.50
2017-12-29T00:43:21.740Z,6.00
2017-12-29T00:44:20.883Z,5.90
2017-12-29T00:45:20.887Z,5.30
2017-12-29T00:46:21.000Z,5.10
2017-12-29T00:47:21.468Z,5.70
2017-12-29T00:48:20.798Z,6.30
2017-12-29T00:49:21.274Z,5.70
2017-12-29T00:50:21.284Z,5.90
2017-12-29T00:51:22.328Z,5.90
2017-12-29T00:52:21.530Z,6.50
2017-12-29T00:53:20.883Z,5.90
2017-12-29T00:54:20.929Z,5.50
2017-12-29T00:55:20.581Z,5.50
2017-12-29T00:56:20.965Z,6.30
2017-12-29T00:57:21.466Z,5.30
2017-12-29T00:58:43.258Z,6.40
2017-12-29T00:59:43.317Z,6.30
2017-12-29T01:00:44.140Z,6.70
2017-12-29T01:01:43.507Z,6.90
2017-12-29T01:02:43.757Z,6.30
2017-12-29T01:03:42.625Z,5.90
2017-12-29T01:04:43.381Z,6.70
2017-12-29T01:05:43.106Z,6.10
2017-12-29T01:06:42.806Z,5.90
2017-12-29T01:07:43.140Z,5.60
2017-12-29T01:08:43.097Z,5.80
2017-12-29T01:09:42.950Z,6.40
2017-12-29T01:10:43.357Z,5.90
2017-12-29T01:11:44.324Z,5.70
2017-12-29T01:12:43.336Z,6.40
2017-12-29T01:13:43.065Z,6.40
2017-12-29T01:14:43.500Z,6.00
2017-12-29T01:15:43.582Z,5.80
2017-12-29T01:16:43.566Z,5.90
2017-12-29T01:17:43.624Z,5.70
2017-12-29T01:18:43.372Z,5.40
2017-12-29T01:19:43.107Z,6.20
2017-12-29T01:20:43.166Z,5.90
2017-12-29T01:21:43.535Z,5.90
2017-12-29T01:22:43.347Z,6.40
2017-12-29T01:23:43.657Z,6.60
2017-12-29T01:24:44.151Z,6.00
2017-12-29T01:25:43.720Z,5.60
2017-12-29T01:26:45.221Z,6.50
2017-12-29T01:27:43.571Z,6.70
2017-12-29T01:28:44.074Z,6.10
2017-12-29T01:29:43.483Z,6.90
2017-12-29T01:30:44.018Z,6.90
2017-12-29T01:31:42.787Z,6.20
2017-12-29T01:32:43.581Z,6.10
2017-12-29T01:33:43.946Z,6.50
2017-12-29T01:34:43.435Z,6.30
2017-12-29T01:35:43.935Z,6.60
2017-12-29T01:36:43.560Z,6.70
2017-12-29T01:37:43.186Z,5.40
2017-12-29T01:38:44.728Z,6.40
2017-12-29T01:39:43.270Z,6.10
2017-12-29T01:40:44.489Z,5.70
2017-12-29T01:41:43.937Z,6.00
2017-12-29T01:42:43.467Z,6.10
2017-12-29T01:43:43.897Z,7.00
2017-12-29T01:44:43.537Z,5.30
2017-12-29T01:45:43.786Z,6.00
2017-12-29T01:46:43.457Z,5.40
2017-12-29T01:47:43.448Z,4.70
2017-12-29T01:48:43.842Z,6.10
2017-12-29T01:49:43.521Z,5.70
2017-12-29T01:50:43.872Z,5.40
2017-12-29T01:51:43.307Z,5.30
2017-12-29T01:52:43.692Z,5.40
2017-12-29T01:53:42.870Z,5.90
2017-12-29T01:54:44.186Z,5.50
2017-12-29T01:55:43.438Z,6.00
2017-12-29T01:56:43.495Z,5.10
2017-12-29T01:57:43.958Z,5.30
2017-12-29T01:58:42.567Z,5.60
2017-12-29T01:59:43.309Z,5.90
2017-12-29T02:00:43.022Z,5.30
2017-12-29T02:01:42.713Z,5.20
2017-12-29T02:02:43.750Z,6.40
2017-12-29T02:03:43.278Z,6.10
2017-12-29T02:05:05.128Z,5.20
2017-12-29T02:06:06.394Z,6.80
2017-12-29T02:07:05.712Z,5.90
2017-12-29T02:08:06.141Z,5.70
2017-12-29T02:09:05.640Z,6.70
2017-12-29T02:10:05.818Z,7.70
2017-12-29T02:11:06.275Z,7.50
2017-12-29T02:12:05.827Z,7.20
2017-12-29T02:13:06.241Z,6.80
2017-12-29T02:14:05.307Z,5.50
2017-12-29T02:15:05.031Z,6.70
2017-12-29T02:16:06.074Z,7.40
2017-12-29T02:17:05.927Z,7.80
2017-12-29T02:18:05.986Z,8.00
2017-12-29T02:19:05.750Z,8.40
2017-12-29T02:20:06.231Z,8.30
2017-12-29T02:21:05.549Z,8.10
2017-12-29T02:22:05.464Z,7.90
2017-12-29T02:23:05.934Z,7.60
2017-12-29T02:24:06.233Z,8.10
2017-12-29T02:25:05.533Z,7.60
2017-12-29T02:26:05.783Z,8.70
2017-12-29T02:27:05.896Z,8.20
2017-12-29T02:28:04.899Z,7.30
2017-12-29T02:29:05.782Z,8.90
2017-12-29T02:30:06.397Z,8.40
2017-12-29T02:31:05.701Z,8.60
2017-12-29T02:32:05.692Z,8.40
2017-12-29T02:33:06.109Z,8.40
2017-12-29T02:34:04.993Z,8.00
2017-12-29T02:35:05.460Z,8.10
2017-12-29T02:36:05.749Z,9.40
2017-12-29T02:37:06.108Z,8.40
2017-12-29T02:38:05.501Z,7.40
2017-12-29T02:39:06.024Z,7.80
2017-12-29T02:40:05.046Z,8.00
2017-12-29T02:41:05.042Z,8.20
2017-12-29T02:42:05.325Z,6.70
2017-12-29T02:43:05.758Z,7.50
2017-12-29T02:44:05.992Z,7.40
2017-12-29T02:45:06.287Z,8.20
2017-12-29T02:46:05.245Z,9.20
2017-12-29T02:47:05.650Z,10.00
2017-12-29T02:48:06.030Z,8.00
2017-12-29T02:49:05.435Z,8.60
2017-12-29T02:50:05.091Z,8.70
2017-12-29T02:51:05.370Z,8.70
2017-12-29T02:52:05.338Z,9.30
2017-12-29T02:53:05.596Z,9.90
2017-12-29T02:54:05.340Z,8.40
2017-12-29T02:55:05.741Z,9.00
2017-12-29T02:56:06.125Z,8.60
2017-12-29T02:57:04.936Z,8.50
2017-12-29T02:58:05.832Z,8.70
2017-12-29T02:59:05.357Z,8.50
2017-12-29T03:00:05.651Z,7.40
2017-12-29T03:01:05.457Z,8.30
2017-12-29T03:02:05.458Z,8.50
2017-12-29T03:03:05.064Z,9.30
2017-12-29T03:04:04.953Z,6.90
2017-12-29T03:05:06.279Z,7.80
2017-12-29T03:06:05.336Z,7.90
2017-12-29T03:07:05.708Z,7.60
2017-12-29T03:08:05.747Z,7.60
2017-12-29T03:09:05.482Z,8.80
2017-12-29T03:10:05.624Z,8.10
2017-12-29T03:11:05.231Z,8.70
2017-12-29T03:12:05.046Z,8.60
2017-12-29T03:13:04.976Z,9.40
2017-12-29T03:14:07.409Z,9.50
2017-12-29T03:15:05.368Z,9.10
2017-12-29T03:16:04.950Z,8.70
2017-12-29T03:17:05.667Z,9.30
2017-12-29T03:18:05.617Z,8.00
2017-12-29T03:19:05.918Z,8.80
2017-12-29T03:20:06.338Z,9.30
2017-12-29T03:21:05.774Z,8.80
2017-12-29T03:22:05.329Z,8.70
2017-12-29T03:23:05.688Z,8.50
2017-12-29T03:24:06.015Z,9.60
2017-12-29T03:25:05.535Z,10.50
2017-12-29T03:26:05.895Z,9.90
2017-12-29T03:27:05.620Z,10.10
2017-12-29T03:28:05.620Z,10.80
2017-12-29T03:29:05.906Z,10.50
2017-12-29T03:30:05.399Z,9.80
2017-12-29T03:31:29.601Z,0.00
2017-12-29T03:32:30.879Z,9.50
2017-12-29T03:33:30.278Z,9.80
2017-12-29T03:34:30.272Z,10.20
2017-12-29T03:35:30.577Z,9.00
2017-12-29T03:36:30.184Z,11.00
2017-12-29T03:37:29.942Z,10.70
2017-12-29T03:38:29.779Z,9.70
2017-12-29T03:39:30.096Z,10.30
2017-12-29T03:40:30.551Z,10.00
2017-12-29T03:41:29.842Z,8.90
2017-12-29T03:42:30.115Z,11.00
2017-12-29T03:43:30.465Z,10.50
2017-12-29T03:44:30.471Z,10.60
2017-12-29T03:45:30.764Z,10.90
2017-12-29T03:46:30.099Z,10.30
2017-12-29T03:47:30.474Z,10.90
2017-12-29T03:48:30.737Z,10.80
2017-12-29T03:49:51.554Z,11.40
2017-12-29T03:50:51.203Z,11.90
2017-12-29T03:51:52.473Z,11.70
2017-12-29T03:52:51.342Z,11.80
2017-12-29T03:53:51.375Z,12.10
2017-12-29T03:54:51.607Z,11.40
2017-12-29T03:55:51.194Z,12.70
2017-12-29T03:56:52.038Z,9.80
2017-12-29T03:57:51.931Z,12.40
2017-12-29T03:58:52.296Z,11.60
2017-12-29T03:59:51.142Z,12.20
2017-12-29T04:00:52.464Z,11.70
2017-12-29T04:01:51.835Z,11.80
2017-12-29T04:02:52.117Z,11.20
2017-12-29T04:03:52.508Z,11.50
2017-12-29T04:04:51.856Z,11.60
2017-12-29T04:05:52.388Z,10.40
2017-12-29T04:06:51.103Z,11.70
2017-12-29T04:07:52.406Z,9.90
2017-12-29T04:08:51.299Z,11.70
2017-12-29T04:09:51.034Z,12.20
2017-12-29T04:10:52.321Z,11.50
2017-12-29T04:11:51.650Z,12.10
2017-12-29T04:12:51.344Z,11.70
2017-12-29T04:13:51.309Z,12.40
2017-12-29T04:14:51.323Z,11.70
2017-12-29T04:15:51.739Z,12.90
2017-12-29T04:16:52.067Z,12.90
2017-12-29T04:17:52.541Z,11.60
2017-12-29T04:18:51.473Z,13.00
2017-12-29T04:19:52.206Z,12.80
2017-12-29T04:20:51.059Z,11.70
2017-12-29T04:21:52.435Z,12.00
2017-12-29T04:22:51.012Z,11.40
2017-12-29T04:23:52.321Z,11.70
2017-12-29T04:24:50.978Z,12.10
2017-12-29T04:25:53.065Z,13.20
2017-12-29T04:27:14.312Z,12.80
2017-12-29T04:28:14.731Z,12.50
2017-12-29T04:29:14.738Z,13.80
2017-12-29T04:30:15.126Z,12.90
2017-12-29T04:31:14.519Z,12.80
2017-12-29T04:32:14.273Z,11.90
2017-12-29T04:33:14.732Z,11.70
2017-12-29T04:34:15.212Z,12.20
2017-12-29T04:35:14.176Z,12.30
2017-12-29T04:36:14.494Z,14.20
2017-12-29T04:37:14.926Z,13.10
2017-12-29T04:38:14.292Z,13.80
2017-12-29T04:39:14.509Z,13.80
2017-12-29T04:40:14.519Z,13.80
2017-12-29T04:41:14.434Z,13.40
2017-12-29T04:42:14.069Z,13.80
2017-12-29T04:43:14.403Z,11.00
2017-12-29T04:44:14.855Z,12.20
2017-12-29T04:45:14.785Z,12.30
2017-12-29T04:46:15.176Z,13.50
2017-12-29T04:47:14.140Z,10.50
2017-12-29T04:48:14.567Z,11.60
2017-12-29T04:49:14.295Z,12.70
2017-12-29T04:50:14.139Z,13.40
2017-12-29T04:51:14.541Z,13.40
2017-12-29T04:52:14.867Z,13.00
2017-12-29T04:53:14.698Z,13.10
2017-12-29T04:54:14.771Z,12.00
2017-12-29T04:55:15.138Z,12.50
2017-12-29T04:56:14.194Z,12.70
2017-12-29T04:57:13.942Z,13.10
2017-12-29T04:58:14.366Z,12.10
2017-12-29T04:59:14.334Z,11.80
2017-12-29T05:00:14.777Z,13.20
2017-12-29T05:01:14.682Z,13.70
2017-12-29T05:02:14.446Z,11.10
2017-12-29T05:03:14.354Z,11.70
2017-12-29T05:04:14.190Z,11.00
2017-12-29T05:05:13.789Z,13.00
2017-12-29T05:06:48.603Z,13.40
2017-12-29T05:07:14.289Z,12.90
2017-12-29T05:08:14.713Z,11.70
2017-12-29T05:09:14.450Z,11.90
2017-12-29T05:10:14.178Z,11.30
2017-12-29T05:11:14.661Z,12.20
2017-12-29T05:12:14.341Z,12.10
2017-12-29T05:13:14.115Z,12.00
2017-12-29T05:14:13.997Z,11.80
2017-12-29T05:15:14.436Z,11.90
2017-12-29T05:16:14.097Z,11.80
2017-12-29T05:17:14.094Z,12.50
2017-12-29T05:18:35.494Z,12.60
2017-12-29T05:19:36.887Z,13.20
2017-12-29T05:20:35.473Z,12.90
2017-12-29T05:21:36.332Z,13.70
2017-12-29T05:22:36.729Z,13.10
2017-12-29T05:23:36.126Z,13.50
2017-12-29T05:24:36.516Z,14.40
2017-12-29T05:25:36.194Z,12.80
2017-12-29T05:26:35.961Z,12.50
2017-12-29T05:27:35.932Z,15.30
2017-12-29T05:28:35.566Z,14.90
2017-12-29T05:29:36.504Z,13.90
2017-12-29T05:30:36.975Z,14.80
2017-12-29T05:31:36.432Z,14.70
2017-12-29T05:32:36.837Z,14.70
2017-12-29T05:33:35.441Z,13.90
2017-12-29T05:34:36.396Z,16.30
2017-12-29T05:35:36.173Z,15.70
2017-12-29T05:36:36.433Z,15.80
2017-12-29T05:37:57.822Z,15.90
2017-12-29T05:38:59.305Z,16.30
2017-12-29T05:39:59.517Z,14.30
2017-12-29T05:40:58.198Z,14.90
2017-12-29T05:41:59.441Z,16.50
2017-12-29T05:42:58.453Z,16.80
2017-12-29T05:43:58.377Z,17.30
2017-12-29T05:44:57.926Z,14.50
2017-12-29T05:45:58.711Z,17.10
2017-12-29T05:46:58.587Z,17.90
2017-12-29T05:47:59.071Z,16.80
2017-12-29T05:48:59.376Z,15.90
2017-12-29T05:50:19.982Z,16.00
2017-12-29T05:51:20.584Z,16.90
2017-12-29T05:52:20.508Z,17.00
2017-12-29T05:53:20.166Z,13.00
2017-12-29T05:54:19.834Z,15.70
2017-12-29T05:55:20.490Z,17.80
2017-12-29T05:56:20.422Z,16.60
2017-12-29T05:57:20.042Z,15.50
2017-12-29T05:58:21.428Z,16.20
2017-12-29T05:59:20.171Z,15.10
2017-12-29T06:00:19.842Z,16.20
2017-12-29T06:01:20.473Z,15.00
2017-12-29T06:02:20.429Z,14.50
2017-12-29T06:03:20.057Z,15.00
2017-12-29T06:04:20.818Z,15.40
2017-12-29T06:05:21.115Z,15.90
2017-12-29T06:06:20.640Z,14.80
2017-12-29T06:07:20.394Z,15.10
2017-12-29T06:08:20.833Z,16.90
2017-12-29T06:09:20.853Z,15.50
2017-12-29T06:10:20.643Z,15.50
2017-12-29T06:11:21.050Z,15.50
2017-12-29T06:12:21.038Z,15.80
2017-12-29T06:13:20.818Z,16.20
2017-12-29T06:14:20.438Z,15.50
2017-12-29T06:15:42.746Z,15.80
2017-12-29T06:16:42.487Z,16.20
2017-12-29T06:17:42.571Z,15.30
2017-12-29T06:18:42.132Z,13.20
2017-12-29T06:19:43.437Z,13.40
2017-12-29T06:20:42.234Z,15.30
2017-12-29T06:21:42.952Z,16.30
2017-12-29T06:22:43.321Z,14.70
2017-12-29T06:23:42.982Z,15.10
2017-12-29T06:24:42.688Z,15.10
2017-12-29T06:25:42.536Z,14.40
2017-12-29T06:26:42.370Z,13.20
2017-12-29T06:27:43.636Z,12.70
2017-12-29T06:28:42.418Z,15.10
2017-12-29T06:29:42.881Z,12.70
2017-12-29T06:30:42.600Z,14.40
2017-12-29T06:31:42.815Z,14.30
2017-12-29T06:32:43.239Z,14.10
2017-12-29T06:33:43.700Z,11.70
2017-12-29T06:34:42.584Z,13.90
2017-12-29T06:35:42.399Z,12.40
2017-12-29T06:36:42.134Z,15.40
2017-12-29T06:37:43.463Z,14.50
2017-12-29T06:38:43.246Z,14.00
2017-12-29T06:39:43.057Z,13.80
2017-12-29T06:40:42.623Z,13.60
2017-12-29T06:41:42.534Z,12.00
2017-12-29T06:42:42.497Z,12.90
2017-12-29T06:43:42.155Z,12.60
2017-12-29T06:44:43.551Z,13.10
2017-12-29T06:45:42.867Z,12.70
2017-12-29T06:46:42.637Z,12.70
2017-12-29T06:47:42.507Z,10.90
2017-12-29T06:48:42.783Z,13.10
2017-12-29T06:49:42.800Z,12.60
2017-12-29T06:50:42.612Z,11.10
2017-12-29T06:51:42.465Z,11.50
2017-12-29T06:52:42.434Z,11.20
2017-12-29T06:53:43.321Z,11.60
2017-12-29T06:54:43.162Z,10.70
2017-12-29T06:55:43.060Z,12.00
2017-12-29T06:56:43.499Z,10.10
2017-12-29T06:57:42.302Z,10.90
2017-12-29T06:58:42.752Z,11.10
2017-12-29T06:59:42.476Z,11.70
2017-12-29T07:00:42.554Z,12.70
2017-12-29T07:01:42.684Z,10.20
2017-12-29T07:02:42.550Z,11.50
2017-12-29T07:03:42.877Z,12.70
2017-12-29T07:04:43.306Z,12.50
2017-12-29T07:06:05.038Z,11.00
2017-12-29T07:07:05.648Z,12.60
2017-12-29T07:08:05.402Z,13.40
2017-12-29T07:09:05.777Z,13.50
2017-12-29T07:10:06.283Z,13.80
2017-12-29T07:11:05.676Z,13.00
2017-12-29T07:12:05.920Z,12.10
2017-12-29T07:13:05.712Z,12.90
2017-12-29T07:14:05.528Z,12.20
2017-12-29T07:15:05.228Z,13.30
2017-12-29T07:16:05.814Z,12.90
2017-12-29T07:17:05.560Z,13.60
2017-12-29T07:18:05.569Z,12.40
2017-12-29T07:19:06.024Z,10.70
2017-12-29T07:20:05.635Z,12.10
2017-12-29T07:21:05.689Z,12.80
2017-12-29T07:22:06.193Z,11.40
2017-12-29T07:23:05.086Z,10.70
2017-12-29T07:24:05.820Z,11.70
2017-12-29T07:25:05.523Z,11.50
2017-12-29T07:26:05.146Z,12.20
2017-12-29T07:27:05.674Z,13.20
2017-12-29T07:28:06.120Z,10.30
2017-12-29T07:29:06.403Z,11.40
2017-12-29T07:30:05.942Z,12.60
2017-12-29T07:31:28.389Z,11.70
2017-12-29T07:32:28.712Z,11.80
2017-12-29T07:33:28.573Z,13.00
2017-12-29T07:34:28.832Z,11.10
2017-12-29T07:35:29.181Z,12.40
2017-12-29T07:36:28.079Z,13.10
2017-12-29T07:37:28.729Z,10.70
2017-12-29T07:38:28.653Z,12.40
2017-12-29T07:39:29.197Z,9.50
2017-12-29T07:40:28.197Z,10.90
2017-12-29T07:41:28.114Z,9.60
2017-12-29T07:42:28.441Z,11.30
2017-12-29T07:43:28.993Z,9.70
2017-12-29T07:44:28.113Z,11.60
2017-12-29T07:45:27.871Z,10.30
2017-12-29T07:46:28.726Z,10.80
2017-12-29T07:47:29.029Z,10.00
2017-12-29T07:48:27.860Z,11.00
2017-12-29T07:49:28.437Z,11.50
2017-12-29T07:50:28.406Z,11.80
2017-12-29T07:51:28.794Z,9.60
2017-12-29T07:52:28.916Z,11.60
2017-12-29T07:53:29.217Z,11.90
2017-12-29T07:54:28.703Z,11.10
2017-12-29T07:55:29.302Z,10.30
2017-12-29T07:56:28.618Z,8.80
2017-12-29T07:57:29.272Z,10.50
2017-12-29T07:58:28.671Z,11.50
2017-12-29T07:59:28.729Z,11.70
2017-12-29T08:00:29.313Z,10.50
2017-12-29T08:01:28.667Z,13.00
2017-12-29T08:02:29.061Z,12.50
2017-12-29T08:03:27.890Z,12.10
2017-12-29T08:04:28.204Z,12.00
2017-12-29T08:05:28.722Z,12.70
2017-12-29T08:06:28.874Z,12.90
2017-12-29T08:07:28.994Z,12.40
2017-12-29T08:08:28.570Z,12.10
2017-12-29T08:09:51.009Z,13.50
2017-12-29T08:11:35.936Z,12.70
2017-12-29T08:12:36.478Z,10.90
2017-12-29T08:13:36.017Z,9.10
2017-12-29T08:15:20.603Z,12.30
2017-12-29T08:16:20.313Z,11.60
2017-12-29T08:17:20.884Z,9.30
2017-12-29T08:18:20.676Z,12.00
2017-12-29T08:19:21.128Z,11.90
2017-12-29T08:20:20.182Z,11.00
2017-12-29T08:21:20.730Z,10.70
2017-12-29T08:22:21.281Z,12.00
2017-12-29T08:23:20.286Z,10.50
2017-12-29T08:24:20.364Z,9.50
2017-12-29T08:25:21.363Z,10.30
2017-12-29T08:26:20.554Z,9.80
2017-12-29T08:27:21.188Z,9.60
2017-12-29T08:28:20.280Z,9.90
2017-12-29T08:29:20.963Z,9.40
2017-12-29T08:30:20.058Z,10.00
2017-12-29T08:31:20.155Z,9.60
2017-12-29T08:32:20.344Z,9.50
2017-12-29T08:33:20.533Z,10.20
2017-12-29T08:34:20.742Z,9.80
2017-12-29T08:35:20.606Z,10.00
2017-12-29T08:36:21.016Z,9.40
2017-12-29T08:37:21.097Z,7.80
2017-12-29T08:38:20.695Z,9.40
2017-12-29T08:39:20.711Z,8.60
2017-12-29T08:40:20.809Z,7.70
2017-12-29T08:41:21.307Z,8.00
2017-12-29T08:42:20.444Z,8.80
2017-12-29T08:43:20.519Z,8.00
2017-12-29T08:44:20.724Z,9.00
2017-12-29T08:45:20.975Z,8.90
2017-12-29T08:46:20.509Z,9.60
2017-12-29T08:47:20.253Z,9.60
2017-12-29T08:48:42.277Z,9.10
2017-12-29T08:49:42.920Z,8.10
2017-12-29T08:50:43.276Z,7.90
2017-12-29T08:51:42.694Z,7.30
2017-12-29T08:52:42.740Z,7.50
2017-12-29T08:54:04.968Z,7.70
2017-12-29T08:55:06.217Z,9.30
2017-12-29T08:56:05.622Z,8.60
2017-12-29T08:57:06.014Z,8.50
2017-12-29T08:58:05.458Z,8.80
2017-12-29T08:59:05.425Z,8.50
2017-12-29T09:00:05.899Z,8.10
2017-12-29T09:01:27.508Z,8.30
2017-12-29T09:02:27.266Z,7.80
2017-12-29T09:03:28.299Z,8.70
2017-12-29T09:04:27.577Z,8.60
2017-12-29T09:05:28.068Z,8.90
2017-12-29T09:06:28.513Z,8.70
2017-12-29T09:07:27.885Z,8.70
2017-12-29T09:08:28.495Z,7.70
2017-12-29T09:09:27.222Z,7.40
2017-12-29T09:10:52.084Z,8.70
2017-12-29T09:11:52.586Z,8.40
2017-12-29T09:12:52.976Z,7.30
2017-12-29T09:13:52.528Z,7.60
2017-12-29T09:14:52.996Z,7.50
2017-12-29T09:15:53.454Z,8.90
2017-12-29T09:16:52.767Z,8.10
2017-12-29T09:17:52.975Z,8.30
2017-12-29T09:18:51.850Z,8.10
2017-12-29T09:19:53.326Z,7.90
2017-12-29T09:20:52.460Z,8.50
2017-12-29T09:21:52.759Z,9.10
2017-12-29T09:22:53.005Z,8.60
2017-12-29T09:23:52.623Z,7.60
2017-12-29T09:25:14.818Z,7.70
2017-12-29T09:26:15.274Z,7.20
2017-12-29T09:27:14.835Z,6.90
2017-12-29T09:28:37.374Z,8.00
2017-12-29T09:29:38.152Z,7.90
2017-12-29T09:30:38.271Z,7.70
2017-12-29T09:31:37.930Z,7.70
2017-12-29T09:32:38.644Z,7.70
2017-12-29T09:33:38.255Z,7.80
2017-12-29T09:34:38.252Z,7.60
2017-12-29T09:35:38.070Z,6.50
2017-12-29T09:36:38.920Z,6.90
2017-12-29T09:37:38.149Z,6.20
2017-12-29T09:38:38.751Z,6.90
2017-12-29T09:39:38.310Z,6.70
2017-12-29T09:40:59.842Z,6.90
2017-12-29T09:41:59.557Z,6.70
2017-12-29T09:43:00.418Z,5.80
2017-12-29T09:44:00.618Z,6.90
2017-12-29T09:45:02.593Z,6.50
2017-12-29T09:46:00.991Z,5.60
2017-12-29T09:47:00.016Z,6.30
2017-12-29T09:47:59.785Z,6.20
2017-12-29T09:49:00.132Z,6.20
2017-12-29T09:50:00.132Z,5.60
2017-12-29T09:51:00.584Z,6.20
2017-12-29T09:52:00.268Z,5.70
2017-12-29T09:53:00.074Z,5.30
2017-12-29T09:54:00.619Z,5.80
2017-12-29T09:55:00.895Z,6.00
2017-12-29T09:56:00.543Z,5.10
2017-12-29T09:56:59.798Z,5.40
2017-12-29T09:57:59.562Z,5.40
2017-12-29T09:59:00.680Z,5.50
2017-12-29T10:00:21.353Z,5.50
2017-12-29T10:01:43.450Z,5.20
2017-12-29T10:02:45.073Z,5.10
2017-12-29T10:03:44.792Z,4.30
2017-12-29T10:04:44.140Z,5.20
2017-12-29T10:05:44.871Z,5.70
2017-12-29T10:06:44.120Z,5.40
2017-12-29T10:07:44.402Z,5.60
2017-12-29T10:08:45.053Z,5.70
2017-12-29T10:09:44.630Z,5.00
2017-12-29T10:10:43.952Z,5.80
2017-12-29T10:11:44.401Z,5.40
2017-12-29T10:12:45.189Z,6.00
2017-12-29T10:13:44.835Z,5.10
2017-12-29T10:14:44.212Z,5.10
2017-12-29T10:15:44.900Z,5.30
2017-12-29T10:16:43.838Z,5.50
2017-12-29T10:17:43.939Z,5.20
2017-12-29T10:18:44.342Z,4.70
2017-12-29T10:19:44.468Z,5.00
2017-12-29T10:20:44.552Z,4.30
2017-12-29T10:21:44.715Z,5.10
2017-12-29T10:22:44.035Z,5.40
2017-12-29T10:24:06.368Z,5.10
2017-12-29T10:25:06.872Z,4.50
2017-12-29T10:26:06.978Z,4.20
2017-12-29T10:27:07.406Z,4.80
2017-12-29T10:28:06.628Z,4.80
2017-12-29T10:29:07.745Z,4.80
2017-12-29T10:30:07.169Z,5.00
2017-12-29T10:31:07.555Z,5.10
2017-12-29T10:32:07.018Z,5.10
2017-12-29T10:33:07.252Z,4.40
2017-12-29T10:34:06.728Z,4.20
2017-12-29T10:35:07.445Z,3.90
2017-12-29T10:36:07.236Z,4.00
2017-12-29T10:37:07.041Z,4.20
2017-12-29T10:38:07.502Z,3.90
2017-12-29T10:39:06.261Z,3.90
2017-12-29T10:40:06.521Z,4.00
2017-12-29T10:41:06.886Z,3.80
2017-12-29T10:42:07.377Z,4.00
2017-12-29T10:43:06.399Z,3.90
2017-12-29T10:44:06.582Z,3.60
2017-12-29T10:45:06.839Z,4.00
2017-12-29T10:46:06.667Z,3.10
2017-12-29T10:47:06.568Z,3.40
2017-12-29T10:48:06.745Z,3.40
2017-12-29T10:49:06.877Z,3.30
2017-12-29T10:50:06.717Z,2.70
2017-12-29T10:51:07.138Z,3.40
2017-12-29T10:52:06.700Z,3.70
2017-12-29T10:53:07.504Z,3.50
2017-12-29T10:54:07.140Z,3.60
2017-12-29T10:55:06.613Z,3.20
2017-12-29T10:56:07.158Z,3.30
2017-12-29T10:57:06.137Z,3.10
2017-12-29T10:58:06.845Z,2.50
2017-12-29T10:59:07.271Z,2.90
2017-12-29T11:00:06.577Z,3.60
2017-12-29T11:01:07.184Z,3.60
2017-12-29T11:02:06.835Z,3.20
2017-12-29T11:03:07.130Z,3.30
2017-12-29T11:04:06.673Z,3.50
2017-12-29T11:05:07.007Z,3.00
2017-12-29T11:06:07.453Z,3.10
2017-12-29T11:07:06.803Z,3.00
2017-12-29T11:08:07.304Z,2.70
2017-12-29T11:09:07.576Z,3.60
2017-12-29T11:10:06.666Z,3.30
2017-12-29T11:12:14.683Z,3.20
2017-12-29T11:13:15.135Z,2.90
2017-12-29T11:14:18.580Z,2.90
2017-12-29T11:15:16.288Z,2.90
2017-12-29T11:16:15.287Z,3.20
2017-12-29T11:17:14.750Z,2.90
2017-12-29T11:18:15.852Z,3.10
2017-12-29T11:19:15.021Z,3.50
2017-12-29T11:20:17.271Z,3.60
2017-12-29T11:21:36.837Z,3.40
2017-12-29T11:22:37.366Z,3.00
2017-12-29T11:23:38.387Z,2.80
2017-12-29T11:24:37.896Z,3.00
2017-12-29T11:25:37.521Z,2.60
2017-12-29T11:26:37.148Z,2.90
2017-12-29T11:27:38.013Z,2.70
2017-12-29T11:28:37.738Z,3.30
2017-12-29T11:29:37.808Z,2.80
2017-12-29T11:30:37.976Z,3.10
2017-12-29T11:31:37.522Z,3.40
2017-12-29T11:32:36.659Z,2.80
2017-12-29T11:33:37.188Z,3.40
2017-12-29T11:34:37.609Z,3.30
2017-12-29T11:35:37.696Z,2.90
2017-12-29T11:36:37.210Z,3.10
2017-12-29T11:37:37.543Z,3.00
2017-12-29T11:38:37.348Z,3.10
2017-12-29T11:39:38.488Z,3.30
2017-12-29T11:40:37.677Z,3.00
2017-12-29T11:41:36.867Z,2.80
2017-12-29T11:42:37.310Z,3.10
2017-12-29T11:43:38.194Z,3.20
2017-12-29T11:44:37.289Z,3.50
2017-12-29T11:45:38.464Z,3.40
2017-12-29T11:46:37.612Z,2.80
2017-12-29T11:47:37.244Z,3.10
2017-12-29T11:48:37.046Z,3.30
2017-12-29T11:49:37.373Z,3.30
2017-12-29T11:50:36.538Z,3.10
2017-12-29T11:51:37.112Z,3.00
2017-12-29T11:52:37.595Z,3.00
2017-12-29T11:53:37.305Z,2.70
2017-12-29T11:54:36.717Z,3.00
2017-12-29T11:55:37.892Z,2.70
2017-12-29T11:56:37.349Z,3.20
2017-12-29T11:57:38.202Z,3.40
2017-12-29T11:58:37.513Z,3.30
2017-12-29T11:59:36.900Z,3.30
2017-12-29T12:01:00.404Z,3.10
2017-12-29T12:02:00.640Z,2.90
2017-12-29T12:03:00.957Z,2.60
2017-12-29T12:04:00.426Z,3.00
2017-12-29T12:04:59.913Z,2.70
2017-12-29T12:06:00.732Z,2.80
2017-12-29T12:07:00.317Z,2.80
2017-12-29T12:07:59.277Z,2.30
2017-12-29T12:08:59.710Z,2.90
2017-12-29T12:10:00.171Z,3.30
2017-12-29T12:10:59.595Z,2.70
2017-12-29T12:12:00.097Z,3.10
2017-12-29T12:13:01.042Z,3.40
2017-12-29T12:14:00.533Z,3.30
2017-12-29T12:15:02.799Z,2.50
2017-12-29T12:16:02.096Z,3.60
2017-12-29T12:17:02.811Z,3.50
2017-12-29T12:18:05.848Z,2.90
2017-12-29T12:19:01.624Z,3.10
2017-12-29T12:19:59.849Z,3.20
2017-12-29T12:21:00.241Z,3.00
2017-12-29T12:21:59.272Z,3.00
2017-12-29T12:22:59.423Z,3.10
2017-12-29T12:23:59.817Z,3.00
2017-12-29T12:25:00.845Z,3.40
2017-12-29T12:26:00.072Z,3.00
2017-12-29T12:27:00.552Z,3.10
2017-12-29T12:28:01.032Z,3.10
2017-12-29T12:28:59.405Z,2.80
2017-12-29T12:29:59.871Z,3.20
2017-12-29T12:31:45.371Z,3.00
2017-12-29T12:32:46.211Z,3.50
2017-12-29T12:33:45.846Z,3.00
2017-12-29T12:34:46.663Z,3.20
2017-12-29T12:35:45.666Z,2.80
2017-12-29T12:36:46.223Z,2.90
2017-12-29T12:37:45.885Z,2.80
2017-12-29T12:38:44.954Z,3.00
2017-12-29T12:39:45.422Z,3.10
2017-12-29T12:40:45.938Z,3.00
2017-12-29T12:41:45.530Z,2.50
2017-12-29T12:42:45.332Z,3.00
2017-12-29T12:43:45.553Z,2.50
2017-12-29T12:44:45.768Z,2.90
2017-12-29T12:45:46.198Z,2.90
2017-12-29T12:46:45.222Z,3.30
2017-12-29T12:47:45.633Z,3.50
2017-12-29T12:48:46.549Z,3.20
2017-12-29T12:49:46.502Z,2.90
2017-12-29T12:50:45.819Z,3.40
2017-12-29T12:51:45.332Z,3.10
2017-12-29T12:53:08.139Z,2.90
2017-12-29T12:54:53.347Z,3.10
2017-12-29T12:55:53.169Z,3.00
2017-12-29T12:56:53.807Z,3.20
2017-12-29T12:57:53.480Z,3.80
2017-12-29T12:58:53.305Z,3.30
2017-12-29T12:59:54.698Z,3.10
2017-12-29T13:00:52.843Z,2.90
2017-12-29T13:01:53.586Z,2.80
2017-12-29T13:02:52.953Z,2.60
2017-12-29T13:03:52.972Z,2.70
2017-12-29T13:04:53.713Z,2.90
2017-12-29T13:05:52.876Z,2.70
2017-12-29T13:06:54.293Z,3.00
2017-12-29T13:07:53.558Z,2.60
2017-12-29T13:08:53.152Z,2.90
2017-12-29T13:09:53.648Z,2.80
2017-12-29T13:11:15.952Z,2.90
2017-12-29T13:12:16.733Z,2.80
2017-12-29T13:13:15.956Z,2.50
2017-12-29T13:14:16.046Z,2.70
2017-12-29T13:15:16.875Z,2.60
2017-12-29T13:16:16.329Z,2.80
2017-12-29T13:17:16.023Z,2.70
2017-12-29T13:18:16.353Z,2.80
2017-12-29T13:19:15.449Z,3.00
2017-12-29T13:20:15.951Z,2.80
2017-12-29T13:21:17.123Z,3.10
2017-12-29T13:22:16.023Z,3.00
2017-12-29T13:23:15.211Z,2.60
2017-12-29T13:24:15.876Z,2.90